Terminal Aerodrome Forecast
Issued by NWS

Home | Current Version | Previous Version | Text Only | Print | Product List | Glossary On
Versions: 1 2 3 4 5 6 7 8 9 10 11 12 13 14 15 16 17 18 19 20 21 22 23 24 25 26 27 28
000
FTUS44 KBMX 032324
TAFEET
TAF
KEET 032324Z 0400/0424 19004KT P6SM VCTS SCT050CB BKN150
     FM040200 18001KT 5SM BR BKN050
     FM040530 21007KT 3SM +TSRA BKN015CB OVC030
     FM041000 22011KT P6SM OVC040
     FM041800 23007KT P6SM OVC100=

USA.gov is the U.S. government's official web portal to all federal, state and local government web resources and services.